Airborne Airpark
KILN : now visible

Airfield :











YOU CAN JOIN US ON...

 
LOGIN :

Register | Disclaimer

   EN    FR    IT 

 









Legend :    VFR   Marginal VFR   IFR   Intensive IFR   Very Intensive IFR
Visi :
Ceiling :
>= 8 km
>= 3000ft
5 to 8 km
1000 to 3000 ft
1500m to 5 km
500 to 1000 ft
800 to 1500m
200 to 500 ft
< 800m
< 200 ft
Symbols :   Thunderstorms  Fog  Heavy snow  Heavy precipitations  Wind > 20 kt






- Airport Elevation : 1077 ft


KILN - Airborne Airpark

CURRENT METAR :
  • 241054Z AUTO 35008KT 10SM BKN043 06/03 A3016 RMK AO2 SLP219 T00610033

EXPIRED METARs :
  • 240954Z AUTO 35014KT 10SM FEW021 OVC047 07/03 A3015 RMK AO2 SLP211 T00720033
  • 240944Z AUTO 35012KT 10SM SCT017 SCT023 OVC047 07/04 A3015 RMK AO2 T00720039
  • 240928Z AUTO 35014G19KT 10SM SCT010 BKN017 OVC022 08/04 A3015 RMK AO2 T00780044
  • 240854Z AUTO 35012G20KT 10SM OVC014 08/05 A3013 RMK AO2 SLP206 T00780050 50007

TAF KILN
Valid from the 24 at 10:00 until the 25 at 06:00 UTC


241009Z 2410/2506 34012KT P6SM OVC045
FM241200 36010KT P6SM SCT022
TEMPO 2412/2415 BKN022
FM241500 02008KT P6SM SCT025
TEMPO 2415/2418 BKN025
FM250100 04009KT P6SM BKN090
KZID FIR / North America



MET'MAP, your aeronautical weather chart ! - Copyright ORBIFLY December 2007 - Disclaimer

ORBIFLY MET'MAP TEAM :

Programming & Development : Alexandra Zaïnal
Concept & original design : Baudouin d'Aumeries
Assistance for programming : Marc-Olivier Méhu
Technical & hardware support : Manuel Goepfert

Contact : metmap@orbifly.com




SOURCES & CREDITS :

   NOAA       Earth
Advisory